Lobo

Go HERE for most recent data if this page is not up to date.

Jump to table bottom
Date/Time Temp deg F RH % 24 Hr Snow (in) Snow Depth (in) H2O (in)
05/22 17:00 52.0 51 "NAN" 30.6 0.00
05/22 16:00 52.2 47 "NAN" 30.8 0.00
05/22 15:00 46.1 57 "NAN" 31.7 0.00
05/22 14:00 41.2 75 "NAN" 31.9 0.00
05/22 13:00 45.2 74 "NAN" 32.5 0.00
05/22 12:00 48.9 67 "NAN" 31.7 0.00
05/22 11:00 49.4 50 "NAN" 31.2 0.00
05/22 10:00 44.5 63 "NAN" 32.0 0.00
05/22 09:00 43.3 77 "NAN" 32.7 0.00
05/22 08:00 42.0 78 "NAN" 32.6 0.00
05/22 07:00 40.3 78 "NAN" 32.6 0.00
05/22 06:00 39.8 79 "NAN" 32.9 0.00
05/22 05:00 40.9 84 "NAN" 33.1 0.00
05/22 04:00 40.9 80 "NAN" 32.8 0.00
05/22 03:00 40.3 83 "NAN" 33.0 0.00
05/22 02:00 40.5 84 "NAN" 32.7 0.00
05/22 01:00 40.5 80 "NAN" 32.9 0.00
05/22 00:00 40.5 86 "NAN" 33.1 0.00
05/21 23:00 41.1 86 "NAN" 33.1 0.00
05/21 22:00 41.5 84 "NAN" 33.1 0.00
05/21 21:00 42.8 86 "NAN" 33.0 0.00
05/21 20:00 44.4 70 "NAN" 32.9 0.00
05/21 19:00 44.7 67 "NAN" 32.8 0.00
05/21 18:00 46.6 62 "NAN" 32.4 0.00
05/21 17:00 46.6 51 "NAN" 32.0 0.00
05/21 16:00 48.5 70 "NAN" 33.0 0.00
05/21 15:00 52.2 59 "NAN" 32.7 0.00
05/21 14:00 51.0 42 "NAN" 33.1 0.00
05/21 13:00 51.0 56 "NAN" 33.7 0.00
05/21 12:00 48.2 52 "NAN" 33.9 0.00
05/21 11:00 48.0 64 "NAN" 34.5 0.00
05/21 10:00 44.9 57 "NAN" 34.5 0.00
05/21 09:00 42.0 69 "NAN" 35.0 0.00
05/21 08:00 39.5 80 "NAN" 35.2 0.00
05/21 07:00 39.2 77 "NAN" 35.3 0.00
05/21 06:00 38.9 74 "NAN" 35.2 0.00
05/21 05:00 39.2 80 "NAN" 35.3 0.00
05/21 04:00 40.8 71 "NAN" 35.1 0.00
05/21 03:00 38.1 72 "NAN" 35.1 0.00
05/21 02:00 38.3 91 "NAN" 35.5 0.00
05/21 01:00 39.6 84 "NAN" 35.2 0.00
05/21 00:00 40.9 77 "NAN" 35.1 0.00
.